Stonewall, Canada
Current Conditions -  °F | °C
As of 12:00 PM on Thursday 29 Jan 2015 (Local Time) from CYWG Reporting Station
Blowing Snow Blowing Snow  
Wind Chill: -16°   Ceiling: Unl
Heat Index:   Visibility: 15mi
Dew Point: -4°   Wind: 16mph
Humidity: 72%   Direction: 340°NNW
Pressure: 30.56"   Gusts: 23mph
Location:  50.14°N, 97.32°W
Report Text: CYWG 291800Z 34014G20KT 15SM DRSN FEW018 M16/M20 A3056 RMK SF2 SLP370
Loading
Personal Weather Stations






























Interactive Weather Map New forecast layout! Learn more

10-Day Weather Forecast

Advertisements
Track Severe Weather on mobile